sensor_id;sensor_type;location;lat;lon;timestamp;temperature;humidity
14397;DHT22;50653;47.810;13.022;2024-02-26T00:02:02;5.30;99.90
14397;DHT22;50653;47.810;13.022;2024-02-26T00:04:28;5.10;99.90
14397;DHT22;50653;47.810;13.022;2024-02-26T00:06:54;5.10;99.90
14397;DHT22;50653;47.810;13.022;2024-02-26T00:09:20;5.10;99.90
14397;DHT22;50653;47.810;13.022;2024-02-26T00:11:46;5.00;99.90
14397;DHT22;50653;47.810;13.022;2024-02-26T00:14:12;5.10;99.90
14397;DHT22;50653;47.810;13.022;2024-02-26T00:16:40;5.00;99.90
14397;DHT22;50653;47.810;13.022;2024-02-26T00:19:07;5.00;99.90
14397;DHT22;50653;47.810;13.022;2024-02-26T00:21:32;5.10;99.90
14397;DHT22;50653;47.810;13.022;2024-02-26T00:23:58;5.10;99.90
14397;DHT22;50653;47.810;13.022;2024-02-26T00:26:24;5.20;99.90
14397;DHT22;50653;47.810;13.022;2024-02-26T00:28:49;5.20;99.90
14397;DHT22;50653;47.810;13.022;2024-02-26T00:31:16;5.20;99.90
14397;DHT22;50653;47.810;13.022;2024-02-26T00:33:41;5.30;99.90
14397;DHT22;50653;47.810;13.022;2024-02-26T00:36:07;5.30;99.90
14397;DHT22;50653;47.810;13.022;2024-02-26T00:38:33;5.30;99.90
14397;DHT22;50653;47.810;13.022;2024-02-26T00:40:59;5.30;99.90
14397;DHT22;50653;47.810;13.022;2024-02-26T00:43:24;5.20;99.90
14397;DHT22;50653;47.810;13.022;2024-02-26T00:45:50;5.10;99.90
14397;DHT22;50653;47.810;13.022;2024-02-26T00:48:17;5.00;99.90
14397;DHT22;50653;47.810;13.022;2024-02-26T00:50:43;5.00;99.90
14397;DHT22;50653;47.810;13.022;2024-02-26T00:53:09;5.00;99.90
14397;DHT22;50653;47.810;13.022;2024-02-26T00:55:35;5.00;99.90
14397;DHT22;50653;47.810;13.022;2024-02-26T00:58:00;5.00;99.90
14397;DHT22;50653;47.810;13.022;2024-02-26T01:00:26;5.00;99.90
14397;DHT22;50653;47.810;13.022;2024-02-26T01:02:51;5.00;99.90
14397;DHT22;50653;47.810;13.022;2024-02-26T01:05:17;5.00;99.90
14397;DHT22;50653;47.810;13.022;2024-02-26T01:07:43;5.00;99.90
14397;DHT22;50653;47.810;13.022;2024-02-26T01:10:09;5.00;99.90
14397;DHT22;50653;47.810;13.022;2024-02-26T01:12:35;5.00;99.90
14397;DHT22;50653;47.810;13.022;2024-02-26T01:15:02;5.00;99.90
14397;DHT22;50653;47.810;13.022;2024-02-26T01:17:28;4.90;99.90
14397;DHT22;50653;47.810;13.022;2024-02-26T01:19:54;4.90;99.90
14397;DHT22;50653;47.810;13.022;2024-02-26T01:22:20;4.90;99.90
14397;DHT22;50653;47.810;13.022;2024-02-26T01:24:46;5.00;99.90
14397;DHT22;50653;47.810;13.022;2024-02-26T01:27:11;4.90;99.90
14397;DHT22;50653;47.810;13.022;2024-02-26T01:29:38;4.90;99.90
14397;DHT22;50653;47.810;13.022;2024-02-26T01:32:03;5.00;99.90
14397;DHT22;50653;47.810;13.022;2024-02-26T01:34:31;5.00;99.90
14397;DHT22;50653;47.810;13.022;2024-02-26T01:36:57;5.00;99.90
14397;DHT22;50653;47.810;13.022;2024-02-26T01:39:23;5.00;99.90
14397;DHT22;50653;47.810;13.022;2024-02-26T01:41:49;5.00;99.90
14397;DHT22;50653;47.810;13.022;2024-02-26T01:44:14;5.00;99.90
14397;DHT22;50653;47.810;13.022;2024-02-26T01:46:40;5.00;99.90
14397;DHT22;50653;47.810;13.022;2024-02-26T01:49:06;5.00;99.90
14397;DHT22;50653;47.810;13.022;2024-02-26T01:51:33;5.10;99.90
14397;DHT22;50653;47.810;13.022;2024-02-26T01:54:01;5.10;99.90
14397;DHT22;50653;47.810;13.022;2024-02-26T01:56:28;5.10;99.90
14397;DHT22;50653;47.810;13.022;2024-02-26T01:58:58;5.20;99.90
14397;DHT22;50653;47.810;13.022;2024-02-26T02:01:29;5.10;99.90
14397;DHT22;50653;47.810;13.022;2024-02-26T02:03:57;5.10;99.90
14397;DHT22;50653;47.810;13.022;2024-02-26T02:06:23;5.20;99.90
14397;DHT22;50653;47.810;13.022;2024-02-26T02:08:49;5.20;99.90
14397;DHT22;50653;47.810;13.022;2024-02-26T02:11:15;5.20;99.90
14397;DHT22;50653;47.810;13.022;2024-02-26T02:13:41;5.10;99.90
14397;DHT22;50653;47.810;13.022;2024-02-26T02:16:07;5.20;99.90
14397;DHT22;50653;47.810;13.022;2024-02-26T02:18:33;4.90;99.90
14397;DHT22;50653;47.810;13.022;2024-02-26T02:21:02;4.90;99.90
14397;DHT22;50653;47.810;13.022;2024-02-26T02:23:28;4.70;99.90
14397;DHT22;50653;47.810;13.022;2024-02-26T02:25:54;4.90;99.90
14397;DHT22;50653;47.810;13.022;2024-02-26T02:28:23;5.10;99.90
14397;DHT22;50653;47.810;13.022;2024-02-26T02:30:51;5.20;99.90
14397;DHT22;50653;47.810;13.022;2024-02-26T02:33:17;5.30;99.90
14397;DHT22;50653;47.810;13.022;2024-02-26T02:35:42;5.30;99.90
14397;DHT22;50653;47.810;13.022;2024-02-26T02:38:08;5.30;99.90
14397;DHT22;50653;47.810;13.022;2024-02-26T02:40:34;5.20;99.90
14397;DHT22;50653;47.810;13.022;2024-02-26T02:43:00;5.20;99.90
14397;DHT22;50653;47.810;13.022;2024-02-26T02:45:28;5.20;99.90
14397;DHT22;50653;47.810;13.022;2024-02-26T02:47:53;5.10;99.90
14397;DHT22;50653;47.810;13.022;2024-02-26T02:50:19;4.90;99.90
14397;DHT22;50653;47.810;13.022;2024-02-26T02:52:45;4.80;99.90
14397;DHT22;50653;47.810;13.022;2024-02-26T02:55:12;4.80;99.90
14397;DHT22;50653;47.810;13.022;2024-02-26T02:57:37;4.80;99.90
14397;DHT22;50653;47.810;13.022;2024-02-26T03:00:09;4.90;99.90
14397;DHT22;50653;47.810;13.022;2024-02-26T03:02:35;4.90;99.90
14397;DHT22;50653;47.810;13.022;2024-02-26T03:05:02;4.90;99.90
14397;DHT22;50653;47.810;13.022;2024-02-26T03:07:28;4.80;99.90
14397;DHT22;50653;47.810;13.022;2024-02-26T03:09:54;4.90;99.90
14397;DHT22;50653;47.810;13.022;2024-02-26T03:12:19;4.80;99.90
14397;DHT22;50653;47.810;13.022;2024-02-26T03:14:45;4.80;99.90
14397;DHT22;50653;47.810;13.022;2024-02-26T03:17:11;4.90;99.90
14397;DHT22;50653;47.810;13.022;2024-02-26T03:19:37;5.00;99.90
14397;DHT22;50653;47.810;13.022;2024-02-26T03:22:02;5.10;99.90
14397;DHT22;50653;47.810;13.022;2024-02-26T03:24:28;5.00;99.90
14397;DHT22;50653;47.810;13.022;2024-02-26T03:26:54;4.90;99.90
14397;DHT22;50653;47.810;13.022;2024-02-26T03:29:19;4.80;99.90
14397;DHT22;50653;47.810;13.022;2024-02-26T03:31:45;4.80;99.90
14397;DHT22;50653;47.810;13.022;2024-02-26T03:34:10;4.80;99.90
14397;DHT22;50653;47.810;13.022;2024-02-26T03:36:38;4.70;99.90
14397;DHT22;50653;47.810;13.022;2024-02-26T03:39:03;4.60;99.90
14397;DHT22;50653;47.810;13.022;2024-02-26T03:41:35;4.60;99.90
14397;DHT22;50653;47.810;13.022;2024-02-26T03:44:02;4.60;99.90
14397;DHT22;50653;47.810;13.022;2024-02-26T03:46:27;4.40;99.90
14397;DHT22;50653;47.810;13.022;2024-02-26T03:48:53;4.50;99.90
14397;DHT22;50653;47.810;13.022;2024-02-26T03:51:19;4.30;99.90
14397;DHT22;50653;47.810;13.022;2024-02-26T03:53:45;4.40;99.90
14397;DHT22;50653;47.810;13.022;2024-02-26T03:56:12;4.40;99.90
14397;DHT22;50653;47.810;13.022;2024-02-26T03:58:39;4.50;99.90
14397;DHT22;50653;47.810;13.022;2024-02-26T04:01:07;4.40;99.90
14397;DHT22;50653;47.810;13.022;2024-02-26T04:03:33;4.40;99.90
14397;DHT22;50653;47.810;13.022;2024-02-26T04:05:59;4.50;99.90
14397;DHT22;50653;47.810;13.022;2024-02-26T04:08:24;4.50;99.90
14397;DHT22;50653;47.810;13.022;2024-02-26T04:10:50;4.60;99.90
14397;DHT22;50653;47.810;13.022;2024-02-26T04:13:17;4.60;99.90
14397;DHT22;50653;47.810;13.022;2024-02-26T04:15:43;4.60;99.90
14397;DHT22;50653;47.810;13.022;2024-02-26T04:18:09;4.60;99.90
14397;DHT22;50653;47.810;13.022;2024-02-26T04:20:34;4.60;99.90
14397;DHT22;50653;47.810;13.022;2024-02-26T04:23:00;4.50;99.90
14397;DHT22;50653;47.810;13.022;2024-02-26T04:25:26;4.50;99.90
14397;DHT22;50653;47.810;13.022;2024-02-26T04:27:52;4.40;99.90
14397;DHT22;50653;47.810;13.022;2024-02-26T04:30:17;4.30;99.90
14397;DHT22;50653;47.810;13.022;2024-02-26T04:32:43;4.40;99.90
14397;DHT22;50653;47.810;13.022;2024-02-26T04:35:09;4.30;99.90
14397;DHT22;50653;47.810;13.022;2024-02-26T04:37:35;4.20;99.90
14397;DHT22;50653;47.810;13.022;2024-02-26T04:40:01;4.20;99.90
14397;DHT22;50653;47.810;13.022;2024-02-26T04:42:27;4.20;99.90
14397;DHT22;50653;47.810;13.022;2024-02-26T04:44:54;4.30;99.90
14397;DHT22;50653;47.810;13.022;2024-02-26T04:47:20;4.30;99.90
14397;DHT22;50653;47.810;13.022;2024-02-26T04:49:51;4.30;99.90
14397;DHT22;50653;47.810;13.022;2024-02-26T04:52:16;4.20;99.90
14397;DHT22;50653;47.810;13.022;2024-02-26T04:54:42;4.20;99.90
14397;DHT22;50653;47.810;13.022;2024-02-26T04:57:08;4.30;99.90
14397;DHT22;50653;47.810;13.022;2024-02-26T04:59:34;4.30;99.90
14397;DHT22;50653;47.810;13.022;2024-02-26T05:01:59;4.30;99.90
14397;DHT22;50653;47.810;13.022;2024-02-26T05:04:25;4.30;99.90
14397;DHT22;50653;47.810;13.022;2024-02-26T05:06:50;4.20;99.90
14397;DHT22;50653;47.810;13.022;2024-02-26T05:09:16;4.30;99.90
14397;DHT22;50653;47.810;13.022;2024-02-26T05:11:42;4.30;99.90
14397;DHT22;50653;47.810;13.022;2024-02-26T05:14:08;4.20;99.90
14397;DHT22;50653;47.810;13.022;2024-02-26T05:16:33;4.10;99.90
14397;DHT22;50653;47.810;13.022;2024-02-26T05:18:59;4.10;99.90
14397;DHT22;50653;47.810;13.022;2024-02-26T05:21:25;4.10;99.90
14397;DHT22;50653;47.810;13.022;2024-02-26T05:23:50;4.20;99.90
14397;DHT22;50653;47.810;13.022;2024-02-26T05:26:20;4.20;99.90
14397;DHT22;50653;47.810;13.022;2024-02-26T05:28:47;4.30;99.90
14397;DHT22;50653;47.810;13.022;2024-02-26T05:31:13;4.40;99.90
14397;DHT22;50653;47.810;13.022;2024-02-26T05:33:39;4.40;99.90
14397;DHT22;50653;47.810;13.022;2024-02-26T05:36:05;4.40;99.90
14397;DHT22;50653;47.810;13.022;2024-02-26T05:38:31;4.40;99.90
14397;DHT22;50653;47.810;13.022;2024-02-26T05:40:58;4.40;99.90
14397;DHT22;50653;47.810;13.022;2024-02-26T05:43:25;4.30;99.90
14397;DHT22;50653;47.810;13.022;2024-02-26T05:45:51;4.40;99.90
14397;DHT22;50653;47.810;13.022;2024-02-26T05:48:16;4.40;99.90
14397;DHT22;50653;47.810;13.022;2024-02-26T05:50:42;4.30;99.90
14397;DHT22;50653;47.810;13.022;2024-02-26T05:53:08;4.20;99.90
14397;DHT22;50653;47.810;13.022;2024-02-26T05:55:33;4.20;99.90
14397;DHT22;50653;47.810;13.022;2024-02-26T05:57:59;4.30;99.90
14397;DHT22;50653;47.810;13.022;2024-02-26T06:00:25;4.20;99.90
14397;DHT22;50653;47.810;13.022;2024-02-26T06:02:50;4.30;99.90
14397;DHT22;50653;47.810;13.022;2024-02-26T06:05:16;4.40;99.90
14397;DHT22;50653;47.810;13.022;2024-02-26T06:07:41;4.30;99.90
14397;DHT22;50653;47.810;13.022;2024-02-26T06:10:07;4.10;99.90
14397;DHT22;50653;47.810;13.022;2024-02-26T06:12:35;4.00;99.90
14397;DHT22;50653;47.810;13.022;2024-02-26T06:15:01;4.10;99.90
14397;DHT22;50653;47.810;13.022;2024-02-26T06:17:27;4.20;99.90
14397;DHT22;50653;47.810;13.022;2024-02-26T06:19:53;4.30;99.90
14397;DHT22;50653;47.810;13.022;2024-02-26T06:22:19;4.30;99.90
14397;DHT22;50653;47.810;13.022;2024-02-26T06:24:45;4.20;99.90
14397;DHT22;50653;47.810;13.022;2024-02-26T06:27:10;4.30;99.90
14397;DHT22;50653;47.810;13.022;2024-02-26T06:29:36;4.40;99.90
14397;DHT22;50653;47.810;13.022;2024-02-26T06:32:02;4.40;99.90
14397;DHT22;50653;47.810;13.022;2024-02-26T06:34:28;4.40;99.90
14397;DHT22;50653;47.810;13.022;2024-02-26T06:36:53;4.30;99.90
14397;DHT22;50653;47.810;13.022;2024-02-26T06:39:19;4.30;99.90
14397;DHT22;50653;47.810;13.022;2024-02-26T06:41:45;4.30;99.90
14397;DHT22;50653;47.810;13.022;2024-02-26T06:44:13;4.30;99.90
14397;DHT22;50653;47.810;13.022;2024-02-26T06:46:38;4.30;99.90
14397;DHT22;50653;47.810;13.022;2024-02-26T06:49:05;4.40;99.90
14397;DHT22;50653;47.810;13.022;2024-02-26T06:51:30;4.60;99.90
14397;DHT22;50653;47.810;13.022;2024-02-26T06:53:56;4.60;99.90
14397;DHT22;50653;47.810;13.022;2024-02-26T06:56:22;4.60;99.90
14397;DHT22;50653;47.810;13.022;2024-02-26T06:58:47;4.70;99.90
14397;DHT22;50653;47.810;13.022;2024-02-26T07:01:13;4.70;99.90
14397;DHT22;50653;47.810;13.022;2024-02-26T07:03:42;4.70;99.90
14397;DHT22;50653;47.810;13.022;2024-02-26T07:06:08;4.80;99.90
14397;DHT22;50653;47.810;13.022;2024-02-26T07:08:34;4.80;99.90
14397;DHT22;50653;47.810;13.022;2024-02-26T07:11:00;4.90;99.90
14397;DHT22;50653;47.810;13.022;2024-02-26T07:13:26;5.00;99.90
14397;DHT22;50653;47.810;13.022;2024-02-26T07:15:52;5.10;99.90
14397;DHT22;50653;47.810;13.022;2024-02-26T07:18:18;5.20;99.90
14397;DHT22;50653;47.810;13.022;2024-02-26T07:20:43;5.30;99.90
14397;DHT22;50653;47.810;13.022;2024-02-26T07:23:09;5.40;99.90
14397;DHT22;50653;47.810;13.022;2024-02-26T07:25:35;5.50;99.90
14397;DHT22;50653;47.810;13.022;2024-02-26T07:28:01;5.60;99.90
14397;DHT22;50653;47.810;13.022;2024-02-26T07:30:27;5.70;99.90
14397;DHT22;50653;47.810;13.022;2024-02-26T07:32:52;5.70;99.90
14397;DHT22;50653;47.810;13.022;2024-02-26T07:35:18;5.80;99.90
14397;DHT22;50653;47.810;13.022;2024-02-26T07:37:44;5.90;99.90
14397;DHT22;50653;47.810;13.022;2024-02-26T07:40:10;6.00;99.90
14397;DHT22;50653;47.810;13.022;2024-02-26T07:42:35;6.00;99.90
14397;DHT22;50653;47.810;13.022;2024-02-26T07:45:02;6.10;99.90
14397;DHT22;50653;47.810;13.022;2024-02-26T07:47:28;6.20;99.90
14397;DHT22;50653;47.810;13.022;2024-02-26T07:49:55;6.20;99.90
14397;DHT22;50653;47.810;13.022;2024-02-26T07:52:20;6.20;99.90
14397;DHT22;50653;47.810;13.022;2024-02-26T07:54:46;6.30;99.90
14397;DHT22;50653;47.810;13.022;2024-02-26T07:57:12;6.40;99.90
14397;DHT22;50653;47.810;13.022;2024-02-26T07:59:40;6.40;99.90
14397;DHT22;50653;47.810;13.022;2024-02-26T08:02:06;6.40;99.90
14397;DHT22;50653;47.810;13.022;2024-02-26T08:04:32;6.40;99.90
14397;DHT22;50653;47.810;13.022;2024-02-26T08:06:57;6.40;99.90
14397;DHT22;50653;47.810;13.022;2024-02-26T08:09:23;6.50;99.90
14397;DHT22;50653;47.810;13.022;2024-02-26T08:11:49;6.50;99.90
14397;DHT22;50653;47.810;13.022;2024-02-26T08:14:14;6.60;99.90
14397;DHT22;50653;47.810;13.022;2024-02-26T08:16:40;6.60;99.90
14397;DHT22;50653;47.810;13.022;2024-02-26T08:19:06;6.70;99.90
14397;DHT22;50653;47.810;13.022;2024-02-26T08:21:31;6.80;99.90
14397;DHT22;50653;47.810;13.022;2024-02-26T08:23:57;6.90;99.90
14397;DHT22;50653;47.810;13.022;2024-02-26T08:26:23;7.00;99.90
14397;DHT22;50653;47.810;13.022;2024-02-26T08:28:49;7.00;99.90
14397;DHT22;50653;47.810;13.022;2024-02-26T08:31:17;7.10;99.90
14397;DHT22;50653;47.810;13.022;2024-02-26T08:33:42;7.20;99.90
14397;DHT22;50653;47.810;13.022;2024-02-26T08:36:08;7.20;99.90
14397;DHT22;50653;47.810;13.022;2024-02-26T08:38:34;7.30;99.90
14397;DHT22;50653;47.810;13.022;2024-02-26T08:41:04;7.50;99.90
14397;DHT22;50653;47.810;13.022;2024-02-26T08:43:30;7.60;99.90
14397;DHT22;50653;47.810;13.022;2024-02-26T08:45:56;7.60;99.90
14397;DHT22;50653;47.810;13.022;2024-02-26T08:48:22;7.70;99.90
14397;DHT22;50653;47.810;13.022;2024-02-26T08:50:48;7.80;99.90
14397;DHT22;50653;47.810;13.022;2024-02-26T08:53:14;8.00;99.90
14397;DHT22;50653;47.810;13.022;2024-02-26T08:55:39;8.10;99.90
14397;DHT22;50653;47.810;13.022;2024-02-26T08:58:05;8.20;99.90
14397;DHT22;50653;47.810;13.022;2024-02-26T09:00:31;8.30;99.90
14397;DHT22;50653;47.810;13.022;2024-02-26T09:02:57;8.40;99.90
14397;DHT22;50653;47.810;13.022;2024-02-26T09:05:22;8.40;99.90
14397;DHT22;50653;47.810;13.022;2024-02-26T09:07:48;8.40;99.90
14397;DHT22;50653;47.810;13.022;2024-02-26T09:10:13;8.50;99.90
14397;DHT22;50653;47.810;13.022;2024-02-26T09:12:39;8.50;99.90
14397;DHT22;50653;47.810;13.022;2024-02-26T09:15:06;8.50;99.90
14397;DHT22;50653;47.810;13.022;2024-02-26T09:17:32;8.50;99.90
14397;DHT22;50653;47.810;13.022;2024-02-26T09:19:58;8.60;99.90
14397;DHT22;50653;47.810;13.022;2024-02-26T09:22:24;8.60;99.90
14397;DHT22;50653;47.810;13.022;2024-02-26T09:24:50;8.70;99.90
14397;DHT22;50653;47.810;13.022;2024-02-26T09:27:16;8.80;99.90
14397;DHT22;50653;47.810;13.022;2024-02-26T09:29:42;8.90;99.90
14397;DHT22;50653;47.810;13.022;2024-02-26T09:32:08;9.00;99.90
14397;DHT22;50653;47.810;13.022;2024-02-26T09:34:34;9.10;99.90
14397;DHT22;50653;47.810;13.022;2024-02-26T09:37:00;9.20;99.90
14397;DHT22;50653;47.810;13.022;2024-02-26T09:39:26;9.30;99.90
14397;DHT22;50653;47.810;13.022;2024-02-26T09:41:53;9.40;99.90
14397;DHT22;50653;47.810;13.022;2024-02-26T09:44:19;9.40;99.90
14397;DHT22;50653;47.810;13.022;2024-02-26T09:46:48;9.50;99.90
14397;DHT22;50653;47.810;13.022;2024-02-26T09:49:19;9.50;99.90
14397;DHT22;50653;47.810;13.022;2024-02-26T09:51:46;9.50;99.90
14397;DHT22;50653;47.810;13.022;2024-02-26T09:54:13;9.50;99.90
14397;DHT22;50653;47.810;13.022;2024-02-26T09:56:40;9.50;99.90
14397;DHT22;50653;47.810;13.022;2024-02-26T09:59:15;9.50;99.90
14397;DHT22;50653;47.810;13.022;2024-02-26T10:01:42;9.60;99.90
14397;DHT22;50653;47.810;13.022;2024-02-26T10:04:10;9.70;99.90
14397;DHT22;50653;47.810;13.022;2024-02-26T10:06:37;9.70;99.90
14397;DHT22;50653;47.810;13.022;2024-02-26T10:09:03;9.70;99.90
14397;DHT22;50653;47.810;13.022;2024-02-26T10:11:32;9.70;99.90
14397;DHT22;50653;47.810;13.022;2024-02-26T10:13:58;9.80;99.90
14397;DHT22;50653;47.810;13.022;2024-02-26T10:16:24;9.80;99.90
14397;DHT22;50653;47.810;13.022;2024-02-26T10:18:51;9.90;99.90
14397;DHT22;50653;47.810;13.022;2024-02-26T10:21:21;9.90;99.90
14397;DHT22;50653;47.810;13.022;2024-02-26T10:23:48;9.90;99.90
14397;DHT22;50653;47.810;13.022;2024-02-26T10:26:15;10.00;99.90
14397;DHT22;50653;47.810;13.022;2024-02-26T10:28:45;10.00;99.90
14397;DHT22;50653;47.810;13.022;2024-02-26T10:31:11;10.10;99.90
14397;DHT22;50653;47.810;13.022;2024-02-26T10:33:39;10.20;99.90
14397;DHT22;50653;47.810;13.022;2024-02-26T10:36:06;10.20;99.90
14397;DHT22;50653;47.810;13.022;2024-02-26T10:38:33;10.20;99.90
14397;DHT22;50653;47.810;13.022;2024-02-26T10:40:59;10.30;99.90
14397;DHT22;50653;47.810;13.022;2024-02-26T10:43:26;10.40;99.90
14397;DHT22;50653;47.810;13.022;2024-02-26T10:45:54;10.40;99.90
14397;DHT22;50653;47.810;13.022;2024-02-26T10:48:20;10.50;99.90
14397;DHT22;50653;47.810;13.022;2024-02-26T10:50:46;10.60;99.90
14397;DHT22;50653;47.810;13.022;2024-02-26T10:53:22;10.70;99.90
14397;DHT22;50653;47.810;13.022;2024-02-26T10:55:54;10.80;99.90
14397;DHT22;50653;47.810;13.022;2024-02-26T10:58:21;10.80;99.90
14397;DHT22;50653;47.810;13.022;2024-02-26T11:00:49;10.90;99.90
14397;DHT22;50653;47.810;13.022;2024-02-26T11:03:15;10.90;99.50
14397;DHT22;50653;47.810;13.022;2024-02-26T11:05:44;11.00;98.80
14397;DHT22;50653;47.810;13.022;2024-02-26T11:08:11;11.00;98.00
14397;DHT22;50653;47.810;13.022;2024-02-26T11:10:37;11.10;97.90
14397;DHT22;50653;47.810;13.022;2024-02-26T11:13:05;11.10;97.70
14397;DHT22;50653;47.810;13.022;2024-02-26T11:15:32;11.10;98.00
14397;DHT22;50653;47.810;13.022;2024-02-26T11:18:00;11.20;98.10
14397;DHT22;50653;47.810;13.022;2024-02-26T11:20:28;11.20;97.10
14397;DHT22;50653;47.810;13.022;2024-02-26T11:22:54;11.20;97.10
14397;DHT22;50653;47.810;13.022;2024-02-26T11:25:20;11.20;96.60
14397;DHT22;50653;47.810;13.022;2024-02-26T11:27:50;11.30;96.00
14397;DHT22;50653;47.810;13.022;2024-02-26T11:30:17;11.30;96.10
14397;DHT22;50653;47.810;13.022;2024-02-26T11:32:45;11.30;96.00
14397;DHT22;50653;47.810;13.022;2024-02-26T11:35:11;11.30;96.20
14397;DHT22;50653;47.810;13.022;2024-02-26T11:37:41;11.30;95.90
14397;DHT22;50653;47.810;13.022;2024-02-26T11:40:14;11.30;95.90
14397;DHT22;50653;47.810;13.022;2024-02-26T11:42:45;11.30;94.80
14397;DHT22;50653;47.810;13.022;2024-02-26T11:48:23;11.40;94.20
14397;DHT22;50653;47.810;13.022;2024-02-26T11:50:51;11.50;94.40
14397;DHT22;50653;47.810;13.022;2024-02-26T11:55:48;11.70;95.20
14397;DHT22;50653;47.810;13.022;2024-02-26T11:58:34;11.80;95.20
14397;DHT22;50653;47.810;13.022;2024-02-26T12:00:59;11.90;94.10
14397;DHT22;50653;47.810;13.022;2024-02-26T12:03:25;11.90;94.20
14397;DHT22;50653;47.810;13.022;2024-02-26T12:05:51;11.90;93.60
14397;DHT22;50653;47.810;13.022;2024-02-26T12:08:17;11.90;93.80
14397;DHT22;50653;47.810;13.022;2024-02-26T12:10:45;12.00;94.10
14397;DHT22;50653;47.810;13.022;2024-02-26T12:13:13;12.00;92.50
14397;DHT22;50653;47.810;13.022;2024-02-26T12:15:43;12.00;92.60
14397;DHT22;50653;47.810;13.022;2024-02-26T12:18:19;12.10;93.10
14397;DHT22;50653;47.810;13.022;2024-02-26T12:20:46;12.10;92.80
14397;DHT22;50653;47.810;13.022;2024-02-26T12:23:16;12.20;93.70
14397;DHT22;50653;47.810;13.022;2024-02-26T12:25:45;12.20;93.10
14397;DHT22;50653;47.810;13.022;2024-02-26T12:28:14;12.10;93.30
14397;DHT22;50653;47.810;13.022;2024-02-26T12:30:40;12.20;93.00
14397;DHT22;50653;47.810;13.022;2024-02-26T12:33:06;12.30;92.80
14397;DHT22;50653;47.810;13.022;2024-02-26T12:35:34;12.30;92.70
14397;DHT22;50653;47.810;13.022;2024-02-26T12:38:01;12.40;93.00
14397;DHT22;50653;47.810;13.022;2024-02-26T12:40:28;12.30;93.50
14397;DHT22;50653;47.810;13.022;2024-02-26T12:42:54;12.40;93.10
14397;DHT22;50653;47.810;13.022;2024-02-26T12:45:21;12.40;93.10
14397;DHT22;50653;47.810;13.022;2024-02-26T12:47:47;12.30;92.20
14397;DHT22;50653;47.810;13.022;2024-02-26T12:50:13;12.40;92.60
14397;DHT22;50653;47.810;13.022;2024-02-26T12:52:42;12.50;92.50
14397;DHT22;50653;47.810;13.022;2024-02-26T12:55:09;12.50;92.50
14397;DHT22;50653;47.810;13.022;2024-02-26T12:57:37;12.60;92.80
14397;DHT22;50653;47.810;13.022;2024-02-26T13:00:08;12.60;91.40
14397;DHT22;50653;47.810;13.022;2024-02-26T13:02:37;12.70;91.60
14397;DHT22;50653;47.810;13.022;2024-02-26T13:05:07;12.80;91.20
14397;DHT22;50653;47.810;13.022;2024-02-26T13:07:34;12.80;91.60
14397;DHT22;50653;47.810;13.022;2024-02-26T13:10:00;12.90;91.40
14397;DHT22;50653;47.810;13.022;2024-02-26T13:12:26;13.00;90.20
14397;DHT22;50653;47.810;13.022;2024-02-26T13:15:02;13.10;88.40
14397;DHT22;50653;47.810;13.022;2024-02-26T13:17:31;13.10;90.30
14397;DHT22;50653;47.810;13.022;2024-02-26T13:19:57;13.10;91.00
14397;DHT22;50653;47.810;13.022;2024-02-26T13:22:23;13.00;90.70
14397;DHT22;50653;47.810;13.022;2024-02-26T13:24:56;13.10;88.60
14397;DHT22;50653;47.810;13.022;2024-02-26T13:27:25;13.10;85.90
14397;DHT22;50653;47.810;13.022;2024-02-26T13:30:10;13.10;87.30
14397;DHT22;50653;47.810;13.022;2024-02-26T13:32:37;13.20;85.30
14397;DHT22;50653;47.810;13.022;2024-02-26T13:35:08;13.20;85.50
14397;DHT22;50653;47.810;13.022;2024-02-26T13:37:35;13.20;84.10
14397;DHT22;50653;47.810;13.022;2024-02-26T13:40:04;13.20;88.70
14397;DHT22;50653;47.810;13.022;2024-02-26T13:42:31;13.10;88.60
14397;DHT22;50653;47.810;13.022;2024-02-26T13:44:56;13.10;86.30
14397;DHT22;50653;47.810;13.022;2024-02-26T13:47:22;13.20;84.50
14397;DHT22;50653;47.810;13.022;2024-02-26T13:49:47;13.30;85.00
14397;DHT22;50653;47.810;13.022;2024-02-26T13:52:13;13.30;85.80
14397;DHT22;50653;47.810;13.022;2024-02-26T13:54:39;13.40;84.80
14397;DHT22;50653;47.810;13.022;2024-02-26T13:57:06;13.40;82.90
14397;DHT22;50653;47.810;13.022;2024-02-26T13:59:32;13.50;82.80
14397;DHT22;50653;47.810;13.022;2024-02-26T14:01:58;13.50;83.20
14397;DHT22;50653;47.810;13.022;2024-02-26T14:04:23;13.60;84.00
14397;DHT22;50653;47.810;13.022;2024-02-26T14:06:49;13.60;83.50
14397;DHT22;50653;47.810;13.022;2024-02-26T14:09:15;13.60;84.90
14397;DHT22;50653;47.810;13.022;2024-02-26T14:11:45;13.70;83.90
14397;DHT22;50653;47.810;13.022;2024-02-26T14:14:11;13.70;85.60
14397;DHT22;50653;47.810;13.022;2024-02-26T14:16:36;13.70;80.90
14397;DHT22;50653;47.810;13.022;2024-02-26T14:19:02;13.70;82.70
14397;DHT22;50653;47.810;13.022;2024-02-26T14:21:29;13.70;81.70
14397;DHT22;50653;47.810;13.022;2024-02-26T14:23:55;13.80;84.40
14397;DHT22;50653;47.810;13.022;2024-02-26T14:26:24;13.70;83.30
14397;DHT22;50653;47.810;13.022;2024-02-26T14:28:50;13.80;85.00
14397;DHT22;50653;47.810;13.022;2024-02-26T14:31:19;13.70;85.60
14397;DHT22;50653;47.810;13.022;2024-02-26T14:33:44;13.70;84.20
14397;DHT22;50653;47.810;13.022;2024-02-26T14:36:11;13.70;85.30
14397;DHT22;50653;47.810;13.022;2024-02-26T14:38:37;13.70;87.20
14397;DHT22;50653;47.810;13.022;2024-02-26T14:41:04;13.70;89.10
14397;DHT22;50653;47.810;13.022;2024-02-26T14:43:30;13.70;90.00
14397;DHT22;50653;47.810;13.022;2024-02-26T14:45:58;13.60;89.20
14397;DHT22;50653;47.810;13.022;2024-02-26T14:48:24;13.60;89.90
14397;DHT22;50653;47.810;13.022;2024-02-26T14:50:50;13.50;90.20
14397;DHT22;50653;47.810;13.022;2024-02-26T14:53:17;13.50;90.70
14397;DHT22;50653;47.810;13.022;2024-02-26T14:55:43;13.40;91.20
14397;DHT22;50653;47.810;13.022;2024-02-26T14:58:08;13.40;91.40
14397;DHT22;50653;47.810;13.022;2024-02-26T15:00:40;13.40;92.10
14397;DHT22;50653;47.810;13.022;2024-02-26T15:03:06;13.30;94.00
14397;DHT22;50653;47.810;13.022;2024-02-26T15:05:32;13.30;95.10
14397;DHT22;50653;47.810;13.022;2024-02-26T15:07:58;13.20;96.30
14397;DHT22;50653;47.810;13.022;2024-02-26T15:10:25;13.20;96.70
14397;DHT22;50653;47.810;13.022;2024-02-26T15:12:51;13.10;97.30
14397;DHT22;50653;47.810;13.022;2024-02-26T15:15:21;13.10;98.70
14397;DHT22;50653;47.810;13.022;2024-02-26T15:17:47;13.00;99.10
14397;DHT22;50653;47.810;13.022;2024-02-26T15:20:15;13.00;99.70
14397;DHT22;50653;47.810;13.022;2024-02-26T15:22:40;13.00;99.90
14397;DHT22;50653;47.810;13.022;2024-02-26T15:25:07;13.00;99.90
14397;DHT22;50653;47.810;13.022;2024-02-26T15:27:33;12.90;99.90